sensor_id;sensor_type;location;lat;lon;timestamp;pressure;altitude;pressure_sealevel;temperature;humidity
69535;BME280;56754;51.568;5.048;2022-11-03T00:01:47;101394.91;;;15.02;68.93
69535;BME280;56754;51.568;5.048;2022-11-03T00:04:15;101386.84;;;15.02;68.48
69535;BME280;56754;51.568;5.048;2022-11-03T00:06:41;101385.28;;;15.01;68.64
69535;BME280;56754;51.568;5.048;2022-11-03T00:09:10;101385.28;;;15.01;68.77
69535;BME280;56754;51.568;5.048;2022-11-03T00:11:37;101376.41;;;15.00;69.08
69535;BME280;56754;51.568;5.048;2022-11-03T00:14:04;101378.31;;;15.00;69.19
69535;BME280;56754;51.568;5.048;2022-11-03T00:16:30;101371.81;;;15.01;68.37
69535;BME280;56754;51.568;5.048;2022-11-03T00:18:55;101378.31;;;15.00;69.21
69535;BME280;56754;51.568;5.048;2022-11-03T00:21:20;101371.03;;;15.00;69.29
69535;BME280;56754;51.568;5.048;2022-11-03T00:23:46;101369.91;;;15.01;68.92
69535;BME280;56754;51.568;5.048;2022-11-03T00:26:16;101360.25;;;15.00;68.86
69535;BME280;56754;51.568;5.048;2022-11-03T00:28:44;101352.50;;;14.99;69.03
69535;BME280;56754;51.568;5.048;2022-11-03T00:31:17;101340.94;;;14.98;68.62
69535;BME280;56754;51.568;5.048;2022-11-03T00:33:44;101339.38;;;14.97;68.99
69535;BME280;56754;51.568;5.048;2022-11-03T00:36:13;101342.84;;;14.98;69.21
69535;BME280;56754;51.568;5.048;2022-11-03T00:38:39;101340.16;;;14.98;69.20
69535;BME280;56754;51.568;5.048;2022-11-03T00:41:05;101338.59;;;14.97;68.68
69535;BME280;56754;51.568;5.048;2022-11-03T00:43:32;101331.31;;;14.97;69.57
69535;BME280;56754;51.568;5.048;2022-11-03T00:45:58;101327.81;;;14.97;69.24
69535;BME280;56754;51.568;5.048;2022-11-03T00:48:24;101325.13;;;14.97;69.05
69535;BME280;56754;51.568;5.048;2022-11-03T00:50:49;101308.97;;;14.97;69.22
69535;BME280;56754;51.568;5.048;2022-11-03T00:53:15;101311.69;;;14.97;68.63
69535;BME280;56754;51.568;5.048;2022-11-03T00:55:40;101317.06;;;14.97;68.36
69535;BME280;56754;51.568;5.048;2022-11-03T00:58:05;101317.06;;;14.97;69.13
69535;BME280;56754;51.568;5.048;2022-11-03T01:00:30;101311.22;;;14.95;69.35
69535;BME280;56754;51.568;5.048;2022-11-03T01:02:56;101311.22;;;14.95;68.98
69535;BME280;56754;51.568;5.048;2022-11-03T01:05:21;101310.44;;;14.94;69.41
69535;BME280;56754;51.568;5.048;2022-11-03T01:07:46;101315.03;;;14.94;69.52
69535;BME280;56754;51.568;5.048;2022-11-03T01:10:11;101297.28;;;14.93;69.62
69535;BME280;56754;51.568;5.048;2022-11-03T01:12:37;101304.25;;;14.94;69.71
69535;BME280;56754;51.568;5.048;2022-11-03T01:15:02;101309.31;;;14.95;69.22
69535;BME280;56754;51.568;5.048;2022-11-03T01:17:27;101293.50;;;14.94;69.22
69535;BME280;56754;51.568;5.048;2022-11-03T01:19:53;101292.69;;;14.93;67.44
69535;BME280;56754;51.568;5.048;2022-11-03T01:22:20;101290.31;;;14.92;67.84
69535;BME280;56754;51.568;5.048;2022-11-03T01:24:45;101286.50;;;14.93;69.23
69535;BME280;56754;51.568;5.048;2022-11-03T01:27:14;101284.16;;;14.91;69.35
69535;BME280;56754;51.568;5.048;2022-11-03T01:29:40;101272.63;;;14.91;69.46
69535;BME280;56754;51.568;5.048;2022-11-03T01:32:05;101268.78;;;14.92;69.45
69535;BME280;56754;51.568;5.048;2022-11-03T01:34:31;101265.31;;;14.91;69.00
69535;BME280;56754;51.568;5.048;2022-11-03T01:36:57;101252.97;;;14.90;69.41
69535;BME280;56754;51.568;5.048;2022-11-03T01:39:22;101253.78;;;14.91;69.37
69535;BME280;56754;51.568;5.048;2022-11-03T01:41:49;101256.47;;;14.91;69.12
69535;BME280;56754;51.568;5.048;2022-11-03T01:46:45;101246.31;;;14.88;68.67
69535;BME280;56754;51.568;5.048;2022-11-03T01:49:16;101244.75;;;14.87;69.26
69535;BME280;56754;51.568;5.048;2022-11-03T01:51:45;101245.53;;;14.87;69.39
69535;BME280;56754;51.568;5.048;2022-11-03T01:54:15;101245.53;;;14.87;69.33
69535;BME280;56754;51.568;5.048;2022-11-03T01:56:44;101238.59;;;14.86;69.08
69535;BME280;56754;51.568;5.048;2022-11-03T01:59:09;101234.00;;;14.87;69.58
69535;BME280;56754;51.568;5.048;2022-11-03T02:01:35;101233.53;;;14.85;69.02
69535;BME280;56754;51.568;5.048;2022-11-03T02:04:07;101233.53;;;14.85;69.40
69535;BME280;56754;51.568;5.048;2022-11-03T02:06:35;101219.63;;;14.83;69.15
69535;BME280;56754;51.568;5.048;2022-11-03T02:09:04;101216.94;;;14.83;68.95
69535;BME280;56754;51.568;5.048;2022-11-03T02:11:31;101225.00;;;14.83;69.59
69535;BME280;56754;51.568;5.048;2022-11-03T02:13:57;101216.59;;;14.84;69.06
69535;BME280;56754;51.568;5.048;2022-11-03T02:16:23;101213.91;;;14.84;69.25
69535;BME280;56754;51.568;5.048;2022-11-03T02:18:50;101210.78;;;14.82;69.16
69535;BME280;56754;51.568;5.048;2022-11-03T02:21:29;101206.84;;;14.79;69.34
69535;BME280;56754;51.568;5.048;2022-11-03T02:24:04;101203.00;;;14.81;69.41
69535;BME280;56754;51.568;5.048;2022-11-03T02:26:33;101199.84;;;14.78;69.47
69535;BME280;56754;51.568;5.048;2022-11-03T02:28:59;101195.28;;;14.79;69.37
69535;BME280;56754;51.568;5.048;2022-11-03T02:34:20;101199.06;;;14.78;69.04
69535;BME280;56754;51.568;5.048;2022-11-03T02:39:25;101177.53;;;14.78;69.56
69535;BME280;56754;51.568;5.048;2022-11-03T02:41:55;101169.81;;;14.76;69.13
69535;BME280;56754;51.568;5.048;2022-11-03T02:44:24;101166.00;;;14.77;69.42
69535;BME280;56754;51.568;5.048;2022-11-03T02:46:54;101161.75;;;14.76;69.44
69535;BME280;56754;51.568;5.048;2022-11-03T02:49:21;101154.78;;;14.75;68.51
69535;BME280;56754;51.568;5.048;2022-11-03T02:51:47;101166.66;;;14.74;69.26
69535;BME280;56754;51.568;5.048;2022-11-03T02:54:19;101157.81;;;14.74;69.19
69535;BME280;56754;51.568;5.048;2022-11-03T02:56:49;101138.97;;;14.74;69.48
69535;BME280;56754;51.568;5.048;2022-11-03T02:59:21;101137.06;;;14.74;69.54
69535;BME280;56754;51.568;5.048;2022-11-03T03:01:56;101133.59;;;14.74;69.49
69535;BME280;56754;51.568;5.048;2022-11-03T03:04:38;101128.22;;;14.74;69.70
69535;BME280;56754;51.568;5.048;2022-11-03T03:07:06;101129.00;;;14.74;69.54
69535;BME280;56754;51.568;5.048;2022-11-03T03:09:40;101126.63;;;14.73;69.00
69535;BME280;56754;51.568;5.048;2022-11-03T03:12:09;101122.03;;;14.73;69.85
69535;BME280;56754;51.568;5.048;2022-11-03T03:14:41;101128.22;;;14.74;69.43
69535;BME280;56754;51.568;5.048;2022-11-03T03:17:14;101111.28;;;14.73;69.31
69535;BME280;56754;51.568;5.048;2022-11-03T03:22:24;101093.22;;;14.74;69.63
69535;BME280;56754;51.568;5.048;2022-11-03T03:24:57;101092.09;;;14.75;69.86
69535;BME280;56754;51.568;5.048;2022-11-03T03:27:26;101088.31;;;14.76;69.70
69535;BME280;56754;51.568;5.048;2022-11-03T03:29:58;101091.00;;;14.76;69.45
69535;BME280;56754;51.568;5.048;2022-11-03T03:32:27;101076.44;;;14.77;69.65
69535;BME280;56754;51.568;5.048;2022-11-03T03:34:57;101073.72;;;14.77;69.74
69535;BME280;56754;51.568;5.048;2022-11-03T03:37:25;101079.13;;;14.77;69.74
69535;BME280;56754;51.568;5.048;2022-11-03T03:39:55;101081.03;;;14.76;69.03
69535;BME280;56754;51.568;5.048;2022-11-03T03:42:24;101084.81;;;14.75;68.63
69535;BME280;56754;51.568;5.048;2022-11-03T03:44:51;101076.75;;;14.75;69.40
69535;BME280;56754;51.568;5.048;2022-11-03T03:47:30;101084.81;;;14.75;68.00
69535;BME280;56754;51.568;5.048;2022-11-03T03:49:56;101076.75;;;14.75;69.51
69535;BME280;56754;51.568;5.048;2022-11-03T03:52:23;101075.97;;;14.75;69.54
69535;BME280;56754;51.568;5.048;2022-11-03T03:54:48;101080.25;;;14.76;69.68
69535;BME280;56754;51.568;5.048;2022-11-03T03:57:16;101079.00;;;14.73;69.46
69535;BME280;56754;51.568;5.048;2022-11-03T03:59:43;101062.84;;;14.73;68.90
69535;BME280;56754;51.568;5.048;2022-11-03T04:02:09;101066.31;;;14.74;69.09
69535;BME280;56754;51.568;5.048;2022-11-03T04:04:35;101073.63;;;14.73;69.71
69535;BME280;56754;51.568;5.048;2022-11-03T04:07:00;101071.72;;;14.74;69.73
69535;BME280;56754;51.568;5.048;2022-11-03T04:09:25;101066.31;;;14.74;69.71
69535;BME280;56754;51.568;5.048;2022-11-03T04:11:51;101064.41;;;14.74;69.60
69535;BME280;56754;51.568;5.048;2022-11-03T04:14:16;101059.81;;;14.75;69.64
69535;BME280;56754;51.568;5.048;2022-11-03T04:16:41;101055.22;;;14.75;69.27
69535;BME280;56754;51.568;5.048;2022-11-03T04:19:10;101059.81;;;14.75;69.15
69535;BME280;56754;51.568;5.048;2022-11-03T04:21:35;101049.06;;;14.75;69.53
69535;BME280;56754;51.568;5.048;2022-11-03T04:24:00;101053.66;;;14.74;69.63
69535;BME280;56754;51.568;5.048;2022-11-03T04:26:27;101054.78;;;14.73;69.59
69535;BME280;56754;51.568;5.048;2022-11-03T04:28:52;101053.66;;;14.74;69.32
69535;BME280;56754;51.568;5.048;2022-11-03T04:31:19;101044.03;;;14.73;69.48
69535;BME280;56754;51.568;5.048;2022-11-03T04:33:45;101045.91;;;14.73;69.57
69535;BME280;56754;51.568;5.048;2022-11-03T04:36:22;101036.72;;;14.74;69.56
69535;BME280;56754;51.568;5.048;2022-11-03T04:38:49;101037.81;;;14.73;69.41
69535;BME280;56754;51.568;5.048;2022-11-03T04:41:28;101035.94;;;14.73;69.65
69535;BME280;56754;51.568;5.048;2022-11-03T04:43:55;101028.97;;;14.72;68.42
69535;BME280;56754;51.568;5.048;2022-11-03T04:46:26;101032.44;;;14.73;69.33
69535;BME280;56754;51.568;5.048;2022-11-03T04:48:59;101018.22;;;14.72;69.36
69535;BME280;56754;51.568;5.048;2022-11-03T04:51:29;101024.38;;;14.73;68.92
69535;BME280;56754;51.568;5.048;2022-11-03T04:54:02;101012.06;;;14.72;69.42
69535;BME280;56754;51.568;5.048;2022-11-03T04:56:28;101010.50;;;14.71;69.49
69535;BME280;56754;51.568;5.048;2022-11-03T04:58:54;101013.97;;;14.71;69.92
69535;BME280;56754;51.568;5.048;2022-11-03T05:01:21;101016.66;;;14.71;68.99
69535;BME280;56754;51.568;5.048;2022-11-03T05:03:49;100994.00;;;14.72;69.56
69535;BME280;56754;51.568;5.048;2022-11-03T05:06:17;101004.75;;;14.72;69.84
69535;BME280;56754;51.568;5.048;2022-11-03T05:08:47;101003.97;;;14.72;69.74
69535;BME280;56754;51.568;5.048;2022-11-03T05:11:24;100991.31;;;14.72;69.85
69535;BME280;56754;51.568;5.048;2022-11-03T05:13:52;100992.09;;;14.73;69.89
69535;BME280;56754;51.568;5.048;2022-11-03T05:16:18;100998.28;;;14.73;69.98
69535;BME280;56754;51.568;5.048;2022-11-03T05:18:45;100981.31;;;14.73;69.38
69535;BME280;56754;51.568;5.048;2022-11-03T05:21:14;100980.22;;;14.74;69.01
69535;BME280;56754;51.568;5.048;2022-11-03T05:23:47;100982.91;;;14.74;69.64
69535;BME280;56754;51.568;5.048;2022-11-03T05:26:23;100978.31;;;14.74;69.84
69535;BME280;56754;51.568;5.048;2022-11-03T05:29:13;100970.25;;;14.74;69.62
69535;BME280;56754;51.568;5.048;2022-11-03T05:31:41;100966.00;;;14.73;69.75
69535;BME280;56754;51.568;5.048;2022-11-03T05:36:50;100960.63;;;14.73;69.55
69535;BME280;56754;51.568;5.048;2022-11-03T05:39:33;100966.78;;;14.74;69.81
69535;BME280;56754;51.568;5.048;2022-11-03T05:41:59;100949.84;;;14.73;69.82
69535;BME280;56754;51.568;5.048;2022-11-03T05:44:35;100953.66;;;14.72;68.56
69535;BME280;56754;51.568;5.048;2022-11-03T05:47:01;100956.00;;;14.74;69.68
69535;BME280;56754;51.568;5.048;2022-11-03T05:49:27;100951.72;;;14.73;69.84
69535;BME280;56754;51.568;5.048;2022-11-03T05:51:53;100949.03;;;14.73;69.49
69535;BME280;56754;51.568;5.048;2022-11-03T05:54:26;100940.97;;;14.73;69.88
69535;BME280;56754;51.568;5.048;2022-11-03T05:56:51;100939.09;;;14.73;69.81
69535;BME280;56754;51.568;5.048;2022-11-03T05:59:22;100935.28;;;14.74;69.36
69535;BME280;56754;51.568;5.048;2022-11-03T06:01:49;100934.50;;;14.74;69.78
69535;BME280;56754;51.568;5.048;2022-11-03T06:04:31;100934.50;;;14.74;69.89
69535;BME280;56754;51.568;5.048;2022-11-03T06:07:22;100913.75;;;14.74;69.83
69535;BME280;56754;51.568;5.048;2022-11-03T06:09:48;100916.44;;;14.74;69.97
69535;BME280;56754;51.568;5.048;2022-11-03T06:12:17;100914.53;;;14.75;69.80
69535;BME280;56754;51.568;5.048;2022-11-03T06:14:43;100914.88;;;14.73;69.82
69535;BME280;56754;51.568;5.048;2022-11-03T06:17:27;100913.75;;;14.74;69.87
69535;BME280;56754;51.568;5.048;2022-11-03T06:19:55;100904.13;;;14.73;69.30
69535;BME280;56754;51.568;5.048;2022-11-03T06:22:34;100896.81;;;14.74;69.33
69535;BME280;56754;51.568;5.048;2022-11-03T06:25:15;100896.81;;;14.74;69.72
69535;BME280;56754;51.568;5.048;2022-11-03T06:27:45;100897.59;;;14.74;69.97
69535;BME280;56754;51.568;5.048;2022-11-03T06:30:27;100897.59;;;14.74;70.09
69535;BME280;56754;51.568;5.048;2022-11-03T06:32:56;100895.69;;;14.75;69.90
69535;BME280;56754;51.568;5.048;2022-11-03T06:35:22;100902.97;;;14.74;70.05
69535;BME280;56754;51.568;5.048;2022-11-03T06:37:47;100885.72;;;14.75;69.97
69535;BME280;56754;51.568;5.048;2022-11-03T06:42:38;100881.13;;;14.76;69.78
69535;BME280;56754;51.568;5.048;2022-11-03T06:45:20;100883.81;;;14.76;69.67
69535;BME280;56754;51.568;5.048;2022-11-03T06:47:46;100884.63;;;14.76;69.96
69535;BME280;56754;51.568;5.048;2022-11-03T06:50:23;100880.00;;;14.77;70.00
69535;BME280;56754;51.568;5.048;2022-11-03T06:52:50;100873.84;;;14.76;70.01
69535;BME280;56754;51.568;5.048;2022-11-03T06:55:27;100879.22;;;14.76;69.91
69535;BME280;56754;51.568;5.048;2022-11-03T06:58:14;100879.22;;;14.76;69.87
69535;BME280;56754;51.568;5.048;2022-11-03T07:00:41;100869.72;;;14.79;70.01
69535;BME280;56754;51.568;5.048;2022-11-03T07:05:33;100861.94;;;14.77;69.83
69535;BME280;56754;51.568;5.048;2022-11-03T07:08:02;100870.81;;;14.78;69.68
69535;BME280;56754;51.568;5.048;2022-11-03T07:10:30;100862.72;;;14.78;69.72
69535;BME280;56754;51.568;5.048;2022-11-03T07:12:58;100868.91;;;14.78;69.78
69535;BME280;56754;51.568;5.048;2022-11-03T07:15:27;100867.78;;;14.79;69.67
69535;BME280;56754;51.568;5.048;2022-11-03T07:17:55;100861.28;;;14.81;69.70
69535;BME280;56754;51.568;5.048;2022-11-03T07:20:20;100860.97;;;14.82;69.71
69535;BME280;56754;51.568;5.048;2022-11-03T07:22:46;100865.22;;;14.83;69.81
69535;BME280;56754;51.568;5.048;2022-11-03T07:25:18;100863.28;;;14.84;69.87
69535;BME280;56754;51.568;5.048;2022-11-03T07:27:45;100857.59;;;14.85;69.57
69535;BME280;56754;51.568;5.048;2022-11-03T07:30:23;100866.78;;;14.84;69.05
69535;BME280;56754;51.568;5.048;2022-11-03T07:32:52;100870.25;;;14.85;69.70
69535;BME280;56754;51.568;5.048;2022-11-03T07:35:37;100871.81;;;14.86;69.71
69535;BME280;56754;51.568;5.048;2022-11-03T07:38:10;100868.78;;;14.87;69.70
69535;BME280;56754;51.568;5.048;2022-11-03T07:40:37;100869.56;;;14.88;69.77
69535;BME280;56754;51.568;5.048;2022-11-03T07:43:14;100859.25;;;14.90;69.70
69535;BME280;56754;51.568;5.048;2022-11-03T07:45:51;100866.22;;;14.91;68.92
69535;BME280;56754;51.568;5.048;2022-11-03T07:48:28;100865.09;;;14.92;69.33
69535;BME280;56754;51.568;5.048;2022-11-03T07:50:59;100868.56;;;14.92;69.34
69535;BME280;56754;51.568;5.048;2022-11-03T07:53:35;100856.66;;;14.93;69.40
69535;BME280;56754;51.568;5.048;2022-11-03T07:56:14;100857.47;;;14.94;69.33
69535;BME280;56754;51.568;5.048;2022-11-03T07:58:40;100847.13;;;14.96;69.46
69535;BME280;56754;51.568;5.048;2022-11-03T08:01:23;100835.28;;;14.97;69.43
69535;BME280;56754;51.568;5.048;2022-11-03T08:03:49;100838.38;;;14.99;69.43
69535;BME280;56754;51.568;5.048;2022-11-03T08:06:15;100836.47;;;14.99;69.22
69535;BME280;56754;51.568;5.048;2022-11-03T08:08:40;100830.78;;;15.01;69.34
69535;BME280;56754;51.568;5.048;2022-11-03T08:11:06;100822.38;;;15.02;69.22
69535;BME280;56754;51.568;5.048;2022-11-03T08:13:31;100821.69;;;15.06;69.15
69535;BME280;56754;51.568;5.048;2022-11-03T08:15:57;100807.56;;;15.09;68.95
69535;BME280;56754;51.568;5.048;2022-11-03T08:18:23;100807.97;;;15.11;68.49
69535;BME280;56754;51.568;5.048;2022-11-03T08:20:48;100800.00;;;15.14;68.23
69535;BME280;56754;51.568;5.048;2022-11-03T08:23:13;100798.53;;;15.17;68.25
69535;BME280;56754;51.568;5.048;2022-11-03T08:25:39;100795.53;;;15.18;68.31
69535;BME280;56754;51.568;5.048;2022-11-03T08:28:05;100792.47;;;15.20;68.59
69535;BME280;56754;51.568;5.048;2022-11-03T08:30:31;100776.31;;;15.20;68.43
69535;BME280;56754;51.568;5.048;2022-11-03T08:32:56;100766.00;;;15.22;68.07
69535;BME280;56754;51.568;5.048;2022-11-03T08:35:22;100762.16;;;15.23;68.05
69535;BME280;56754;51.568;5.048;2022-11-03T08:37:47;100757.69;;;15.27;67.63
69535;BME280;56754;51.568;5.048;2022-11-03T08:40:12;100749.38;;;15.32;67.23
69535;BME280;56754;51.568;5.048;2022-11-03T08:42:37;100744.09;;;15.36;66.90
69535;BME280;56754;51.568;5.048;2022-11-03T08:45:03;100740.34;;;15.40;66.45
69535;BME280;56754;51.568;5.048;2022-11-03T08:47:28;100730.34;;;15.41;66.83
69535;BME280;56754;51.568;5.048;2022-11-03T08:49:54;100721.59;;;15.44;66.99
69535;BME280;56754;51.568;5.048;2022-11-03T08:52:19;100718.22;;;15.47;66.76
69535;BME280;56754;51.568;5.048;2022-11-03T08:54:44;100701.38;;;15.50;66.54
69535;BME280;56754;51.568;5.048;2022-11-03T08:57:09;100694.50;;;15.53;66.14
69535;BME280;56754;51.568;5.048;2022-11-03T08:59:35;100694.16;;;15.54;65.77
69535;BME280;56754;51.568;5.048;2022-11-03T09:02:00;100689.22;;;15.56;66.15
69535;BME280;56754;51.568;5.048;2022-11-03T09:04:25;100661.91;;;15.58;66.07
69535;BME280;56754;51.568;5.048;2022-11-03T09:06:50;100654.59;;;15.58;65.60
69535;BME280;56754;51.568;5.048;2022-11-03T09:09:16;100648.88;;;15.60;65.62
69535;BME280;56754;51.568;5.048;2022-11-03T09:11:41;100643.50;;;15.60;65.65
69535;BME280;56754;51.568;5.048;2022-11-03T09:14:06;100650.13;;;15.62;65.60
69535;BME280;56754;51.568;5.048;2022-11-03T09:16:31;100641.66;;;15.64;65.88
69535;BME280;56754;51.568;5.048;2022-11-03T09:18:57;100638.19;;;15.63;65.28
69535;BME280;56754;51.568;5.048;2022-11-03T09:21:22;100626.28;;;15.64;65.59
69535;BME280;56754;51.568;5.048;2022-11-03T09:23:47;100622.47;;;15.65;65.38
69535;BME280;56754;51.568;5.048;2022-11-03T09:26:13;100614.03;;;15.67;65.17
69535;BME280;56754;51.568;5.048;2022-11-03T09:28:38;100617.97;;;15.69;65.28
69535;BME280;56754;51.568;5.048;2022-11-03T09:31:03;100614.16;;;15.71;64.99
69535;BME280;56754;51.568;5.048;2022-11-03T09:33:29;100613.03;;;15.72;64.88
69535;BME280;56754;51.568;5.048;2022-11-03T09:35:54;100613.47;;;15.74;64.63
69535;BME280;56754;51.568;5.048;2022-11-03T09:38:19;100614.25;;;15.74;64.32
69535;BME280;56754;51.568;5.048;2022-11-03T09:40:44;100600.78;;;15.74;64.49
69535;BME280;56754;51.568;5.048;2022-11-03T09:43:10;100605.03;;;15.75;64.95
69535;BME280;56754;51.568;5.048;2022-11-03T09:45:37;100591.91;;;15.74;64.43
69535;BME280;56754;51.568;5.048;2022-11-03T09:48:03;100587.28;;;15.74;64.51
69535;BME280;56754;51.568;5.048;2022-11-03T09:50:28;100582.69;;;15.75;64.29
69535;BME280;56754;51.568;5.048;2022-11-03T09:52:55;100578.84;;;15.76;64.16
69535;BME280;56754;51.568;5.048;2022-11-03T09:55:23;100567.28;;;15.75;64.06
69535;BME280;56754;51.568;5.048;2022-11-03T09:57:51;100576.16;;;15.76;65.10
69535;BME280;56754;51.568;5.048;2022-11-03T10:00:21;100559.22;;;15.75;65.03
69535;BME280;56754;51.568;5.048;2022-11-03T10:02:47;100564.16;;;15.73;65.05
69535;BME280;56754;51.568;5.048;2022-11-03T10:05:18;100554.53;;;15.72;64.74
69535;BME280;56754;51.568;5.048;2022-11-03T10:07:44;100557.22;;;15.72;65.17
69535;BME280;56754;51.568;5.048;2022-11-03T10:10:19;100558.78;;;15.73;64.83
69535;BME280;56754;51.568;5.048;2022-11-03T10:12:46;100554.19;;;15.74;64.80
69535;BME280;56754;51.568;5.048;2022-11-03T10:15:16;100539.13;;;15.73;65.30
69535;BME280;56754;51.568;5.048;2022-11-03T10:17:42;100527.25;;;15.74;65.01
69535;BME280;56754;51.568;5.048;2022-11-03T10:20:14;100532.63;;;15.74;64.72
69535;BME280;56754;51.568;5.048;2022-11-03T10:22:41;100522.97;;;15.73;64.54
69535;BME280;56754;51.568;5.048;2022-11-03T10:25:32;100519.16;;;15.74;64.68
69535;BME280;56754;51.568;5.048;2022-11-03T10:28:13;100514.97;;;15.76;64.66
69535;BME280;56754;51.568;5.048;2022-11-03T10:30:53;100521.50;;;15.75;64.15
69535;BME280;56754;51.568;5.048;2022-11-03T10:33:32;100511.47;;;15.76;64.55
69535;BME280;56754;51.568;5.048;2022-11-03T10:38:40;100502.28;;;15.77;64.26
69535;BME280;56754;51.568;5.048;2022-11-03T10:46:29;100501.59;;;15.80;63.35
69535;BME280;56754;51.568;5.048;2022-11-03T10:49:14;100495.81;;;15.81;63.96
69535;BME280;56754;51.568;5.048;2022-11-03T10:51:46;100497.38;;;15.82;64.10
69535;BME280;56754;51.568;5.048;2022-11-03T10:54:14;100492.44;;;15.84;63.87
69535;BME280;56754;51.568;5.048;2022-11-03T10:56:41;100486.25;;;15.84;63.36
69535;BME280;56754;51.568;5.048;2022-11-03T10:59:15;100477.47;;;15.87;63.15
69535;BME280;56754;51.568;5.048;2022-11-03T11:01:41;100484.41;;;15.88;63.36
69535;BME280;56754;51.568;5.048;2022-11-03T11:04:06;100486.00;;;15.89;63.13
69535;BME280;56754;51.568;5.048;2022-11-03T11:06:32;100469.44;;;15.90;63.11
69535;BME280;56754;51.568;5.048;2022-11-03T11:09:03;100463.72;;;15.92;64.20
69535;BME280;56754;51.568;5.048;2022-11-03T11:11:29;100472.22;;;15.94;63.42
69535;BME280;56754;51.568;5.048;2022-11-03T11:16:48;100443.78;;;15.97;63.25
69535;BME280;56754;51.568;5.048;2022-11-03T11:19:14;100429.19;;;15.98;62.86
69535;BME280;56754;51.568;5.048;2022-11-03T11:24:09;100441.19;;;16.00;63.18
69535;BME280;56754;51.568;5.048;2022-11-03T11:26:34;100430.81;;;16.02;63.38
69535;BME280;56754;51.568;5.048;2022-11-03T11:31:41;100431.66;;;16.06;63.58
69535;BME280;56754;51.568;5.048;2022-11-03T11:36:36;100408.69;;;16.12;63.65
69535;BME280;56754;51.568;5.048;2022-11-03T11:39:03;100392.91;;;16.14;64.83
69535;BME280;56754;51.568;5.048;2022-11-03T11:49:46;100358.00;;;16.22;63.62
69535;BME280;56754;51.568;5.048;2022-11-03T11:52:12;100344.91;;;16.24;63.95
69535;BME280;56754;51.568;5.048;2022-11-03T11:54:40;100347.28;;;16.25;64.20
69535;BME280;56754;51.568;5.048;2022-11-03T11:57:17;100328.44;;;16.29;64.00
69535;BME280;56754;51.568;5.048;2022-11-03T11:59:45;100330.78;;;16.30;64.04
69535;BME280;56754;51.568;5.048;2022-11-03T12:02:17;100325.81;;;16.32;64.00
69535;BME280;56754;51.568;5.048;2022-11-03T12:04:46;100319.69;;;16.35;64.17
69535;BME280;56754;51.568;5.048;2022-11-03T12:07:12;100309.31;;;16.37;64.31
69535;BME280;56754;51.568;5.048;2022-11-03T12:09:37;100315.91;;;16.40;64.21
69535;BME280;56754;51.568;5.048;2022-11-03T12:12:03;100315.56;;;16.42;63.86
69535;BME280;56754;51.568;5.048;2022-11-03T12:16:58;100312.16;;;16.45;64.32
69535;BME280;56754;51.568;5.048;2022-11-03T12:19:46;100306.81;;;16.48;64.29
69535;BME280;56754;51.568;5.048;2022-11-03T12:24:54;100289.13;;;16.51;63.96
69535;BME280;56754;51.568;5.048;2022-11-03T12:29:48;100267.59;;;16.54;63.93
69535;BME280;56754;51.568;5.048;2022-11-03T12:32:13;100269.56;;;16.57;64.09
69535;BME280;56754;51.568;5.048;2022-11-03T12:34:38;100271.13;;;16.58;64.39
69535;BME280;56754;51.568;5.048;2022-11-03T12:37:03;100259.19;;;16.59;64.18
69535;BME280;56754;51.568;5.048;2022-11-03T12:39:29;100256.91;;;16.61;63.24
69535;BME280;56754;51.568;5.048;2022-11-03T12:41:54;100251.50;;;16.61;62.41
69535;BME280;56754;51.568;5.048;2022-11-03T12:44:19;100248.44;;;16.63;62.63
69535;BME280;56754;51.568;5.048;2022-11-03T12:46:44;100250.00;;;16.64;62.45
69535;BME280;56754;51.568;5.048;2022-11-03T12:49:10;100238.44;;;16.64;63.15
69535;BME280;56754;51.568;5.048;2022-11-03T12:51:35;100229.97;;;16.65;62.49
69535;BME280;56754;51.568;5.048;2022-11-03T12:54:00;100232.66;;;16.65;62.36
69535;BME280;56754;51.568;5.048;2022-11-03T12:56:25;100217.28;;;16.66;62.56
69535;BME280;56754;51.568;5.048;2022-11-03T12:58:51;100213.00;;;16.65;62.95
69535;BME280;56754;51.568;5.048;2022-11-03T13:01:16;100200.28;;;16.65;63.28
69535;BME280;56754;51.568;5.048;2022-11-03T13:03:41;100198.38;;;16.66;63.96
69535;BME280;56754;51.568;5.048;2022-11-03T13:06:06;100202.97;;;16.65;63.80
69535;BME280;56754;51.568;5.048;2022-11-03T13:08:32;100185.25;;;16.64;63.50
69535;BME280;56754;51.568;5.048;2022-11-03T13:10:57;100188.72;;;16.65;63.47
69535;BME280;56754;51.568;5.048;2022-11-03T13:13:23;100182.94;;;16.63;63.58
69535;BME280;56754;51.568;5.048;2022-11-03T13:15:48;100173.69;;;16.64;64.11
69535;BME280;56754;51.568;5.048;2022-11-03T13:18:14;100166.34;;;16.64;64.55
69535;BME280;56754;51.568;5.048;2022-11-03T13:20:39;100155.16;;;16.62;64.54
69535;BME280;56754;51.568;5.048;2022-11-03T13:23:04;100159.75;;;16.61;64.60
69535;BME280;56754;51.568;5.048;2022-11-03T13:25:29;100151.69;;;16.61;64.42
69535;BME280;56754;51.568;5.048;2022-11-03T13:27:55;100157.44;;;16.60;64.98
69535;BME280;56754;51.568;5.048;2022-11-03T13:30:22;100158.56;;;16.59;64.62
69535;BME280;56754;51.568;5.048;2022-11-03T13:32:48;100146.63;;;16.56;65.03
69535;BME280;56754;51.568;5.048;2022-11-03T13:35:13;100142.34;;;16.55;63.83
69535;BME280;56754;51.568;5.048;2022-11-03T13:37:39;100146.19;;;16.54;63.58
69535;BME280;56754;51.568;5.048;2022-11-03T13:40:05;100126.94;;;16.56;62.91
69535;BME280;56754;51.568;5.048;2022-11-03T13:42:30;100120.41;;;16.57;64.40
69535;BME280;56754;51.568;5.048;2022-11-03T13:44:55;100120.75;;;16.55;64.89
69535;BME280;56754;51.568;5.048;2022-11-03T13:47:21;100113.81;;;16.54;63.80
69535;BME280;56754;51.568;5.048;2022-11-03T13:49:46;100121.50;;;16.52;64.26